createdAt,value
2017-11-12T00:00:38.074Z,80.00
2017-11-12T00:03:05.547Z,80.10
2017-11-12T00:05:33.015Z,80.20
2017-11-12T00:08:00.474Z,80.20
2017-11-12T00:10:28.695Z,79.80
2017-11-12T00:12:56.923Z,79.60
2017-11-12T00:15:25.165Z,79.70
2017-11-12T00:17:52.612Z,79.70
2017-11-12T00:20:20.105Z,79.50
2017-11-12T00:22:47.582Z,79.50
2017-11-12T00:25:15.856Z,80.00
2017-11-12T00:27:43.335Z,79.90
2017-11-12T00:30:10.830Z,79.80
2017-11-12T00:32:39.061Z,79.50
2017-11-12T00:35:06.508Z,79.50
2017-11-12T00:37:33.992Z,79.80
2017-11-12T00:40:01.454Z,79.90
2017-11-12T00:42:28.980Z,80.00
2017-11-12T00:44:56.475Z,80.20
2017-11-12T00:47:23.922Z,80.80
2017-11-12T00:49:52.151Z,80.70
2017-11-12T00:52:19.652Z,80.20
2017-11-12T00:54:47.863Z,80.50
2017-11-12T00:57:15.322Z,80.50
2017-11-12T00:59:43.614Z,80.60
2017-11-12T01:02:11.079Z,80.60
2017-11-12T01:04:40.264Z,80.50
2017-11-12T01:07:07.748Z,80.50
2017-11-12T01:09:35.202Z,80.50
2017-11-12T01:12:03.420Z,80.90
2017-11-12T01:14:30.991Z,80.90
2017-11-12T01:16:58.451Z,81.20
2017-11-12T01:19:25.947Z,81.20
2017-11-12T01:21:53.418Z,81.40
2017-11-12T01:24:21.649Z,81.70
2017-11-12T01:26:49.119Z,81.60
2017-11-12T01:29:16.617Z,81.60
2017-11-12T01:31:44.162Z,81.70
2017-11-12T01:34:12.437Z,82.00
2017-11-12T01:36:39.906Z,81.90
2017-11-12T01:39:07.361Z,81.90
2017-11-12T01:41:35.590Z,83.20
2017-11-12T01:44:03.106Z,83.20
2017-11-12T01:46:31.334Z,80.80
2017-11-12T01:48:58.795Z,80.70
2017-11-12T01:51:27.032Z,79.70
2017-11-12T01:53:54.490Z,79.70
2017-11-12T01:56:21.973Z,79.90
2017-11-12T01:58:50.283Z,81.10
2017-11-12T02:01:17.750Z,81.20
2017-11-12T02:03:45.206Z,82.10
2017-11-12T02:06:13.540Z,82.20
2017-11-12T02:08:41.007Z,82.20
2017-11-12T02:11:08.472Z,82.40
2017-11-12T02:13:36.839Z,81.90
2017-11-12T02:16:04.301Z,82.00
2017-11-12T02:18:32.531Z,82.40
2017-11-12T02:21:00.048Z,82.30
2017-11-12T02:23:28.267Z,82.10
2017-11-12T02:25:55.757Z,82.10
2017-11-12T02:28:23.254Z,82.20
2017-11-12T02:30:50.785Z,82.50
2017-11-12T02:33:18.277Z,83.00
2017-11-12T02:35:46.516Z,83.00
2017-11-12T02:38:13.991Z,82.90
2017-11-12T02:40:41.455Z,82.40
2017-11-12T02:43:08.929Z,82.00
2017-11-12T02:45:37.160Z,82.10
2017-11-12T02:48:04.621Z,82.10
2017-11-12T02:50:32.869Z,82.60
2017-11-12T02:53:00.473Z,82.70
2017-11-12T02:55:27.950Z,83.10
2017-11-12T02:57:55.424Z,82.90
2017-11-12T03:00:22.866Z,82.60
2017-11-12T03:02:50.380Z,82.10
2017-11-12T03:05:17.997Z,82.50
2017-11-12T03:07:45.467Z,82.30
2017-11-12T03:10:12.991Z,82.80
2017-11-12T03:12:40.589Z,81.60
2017-11-12T03:15:08.055Z,81.90
2017-11-12T03:17:35.508Z,82.00
2017-11-12T03:20:02.987Z,81.90
2017-11-12T03:22:30.521Z,81.90
2017-11-12T03:24:57.983Z,82.20
2017-11-12T03:27:26.230Z,82.20
2017-11-12T03:29:53.803Z,82.20
2017-11-12T03:32:21.269Z,82.00
2017-11-12T03:34:48.731Z,82.10
2017-11-12T03:37:16.972Z,82.10
2017-11-12T03:39:45.204Z,82.80
2017-11-12T03:42:12.828Z,82.80
2017-11-12T03:44:40.280Z,82.60
2017-11-12T03:47:07.767Z,82.60
2017-11-12T03:49:36.108Z,82.60
2017-11-12T03:52:03.569Z,82.60
2017-11-12T03:54:31.796Z,82.90
2017-11-12T03:56:59.294Z,82.90
2017-11-12T03:59:26.752Z,82.40
2017-11-12T04:01:54.216Z,82.20
2017-11-12T04:04:22.458Z,81.50
2017-11-12T04:06:49.912Z,81.50
2017-11-12T04:09:18.154Z,81.40
2017-11-12T04:11:45.680Z,81.50
2017-11-12T04:14:13.916Z,81.00
2017-11-12T04:16:41.393Z,81.10
2017-11-12T04:19:08.860Z,81.80
2017-11-12T04:21:36.318Z,81.50
2017-11-12T04:24:04.546Z,82.40
2017-11-12T04:26:32.053Z,82.40
2017-11-12T04:29:00.282Z,82.20
2017-11-12T04:31:28.515Z,82.00
2017-11-12T04:33:55.988Z,81.90
2017-11-12T04:36:24.235Z,81.90
2017-11-12T04:38:52.457Z,81.70
2017-11-12T04:41:19.940Z,81.70
2017-11-12T04:43:48.914Z,80.60
2017-11-12T04:46:16.378Z,80.60
2017-11-12T04:48:44.860Z,80.10
2017-11-12T04:51:13.175Z,80.40
2017-11-12T04:53:41.401Z,80.30
2017-11-12T04:56:08.878Z,80.30
2017-11-12T04:58:37.108Z,81.40
2017-11-12T05:01:04.643Z,81.40
2017-11-12T05:03:32.882Z,80.60
2017-11-12T05:06:00.341Z,80.60
2017-11-12T05:08:27.832Z,80.10
2017-11-12T05:10:55.285Z,80.80
2017-11-12T05:13:23.517Z,81.20
2017-11-12T05:15:51.005Z,81.30
2017-11-12T05:18:18.535Z,81.30
2017-11-12T05:20:46.047Z,81.50
2017-11-12T05:23:14.276Z,80.20
2017-11-12T05:25:41.748Z,80.10
2017-11-12T05:28:10.011Z,80.70
2017-11-12T05:30:37.471Z,80.80
2017-11-12T05:33:04.944Z,80.40
2017-11-12T05:35:32.390Z,81.30
2017-11-12T05:37:59.842Z,80.80
2017-11-12T05:40:28.114Z,80.70
2017-11-12T05:42:55.578Z,80.70
2017-11-12T05:45:23.048Z,81.30
2017-11-12T05:47:51.266Z,80.00
2017-11-12T05:50:18.755Z,80.70
2017-11-12T05:52:46.244Z,80.00
2017-11-12T05:55:13.702Z,80.10
2017-11-12T05:57:41.207Z,80.30
2017-11-12T06:00:08.666Z,79.80
2017-11-12T06:02:36.900Z,79.30
2017-11-12T06:05:04.352Z,79.30
2017-11-12T06:07:31.931Z,79.50
2017-11-12T06:10:00.157Z,79.40
2017-11-12T06:12:27.634Z,79.30
2017-11-12T06:14:55.112Z,80.70
2017-11-12T06:17:22.558Z,80.40
2017-11-12T06:19:50.829Z,80.80
2017-11-12T06:22:18.286Z,80.80
2017-11-12T06:24:45.756Z,81.50
2017-11-12T06:27:13.230Z,80.30
2017-11-12T06:29:41.460Z,80.60
2017-11-12T06:32:08.943Z,80.60
2017-11-12T06:34:36.415Z,80.30
2017-11-12T06:37:04.072Z,80.70
2017-11-12T06:39:31.543Z,80.70
2017-11-12T06:41:59.020Z,79.80
2017-11-12T06:44:26.504Z,81.00
2017-11-12T06:46:53.969Z,81.00
2017-11-12T06:49:22.228Z,80.50
2017-11-12T06:51:49.707Z,80.50
2017-11-12T06:54:17.172Z,80.50
2017-11-12T06:56:44.680Z,80.50
2017-11-12T06:59:12.175Z,79.50
2017-11-12T07:01:39.737Z,78.90
2017-11-12T07:04:07.221Z,78.60
2017-11-12T07:06:34.708Z,78.80
2017-11-12T07:09:02.190Z,79.40
2017-11-12T07:11:29.651Z,79.80
2017-11-12T07:13:57.912Z,80.40
2017-11-12T07:16:26.143Z,80.90
2017-11-12T07:18:53.636Z,80.90
2017-11-12T07:21:21.127Z,80.70
2017-11-12T07:23:48.592Z,81.20
2017-11-12T07:26:16.845Z,80.00
2017-11-12T07:28:44.303Z,80.10
2017-11-12T07:31:11.777Z,80.30
2017-11-12T07:33:39.281Z,81.40
2017-11-12T07:36:06.825Z,79.90
2017-11-12T07:38:35.045Z,79.80
2017-11-12T07:41:02.627Z,79.90
2017-11-12T07:43:30.073Z,80.80
2017-11-12T07:45:58.408Z,81.50
2017-11-12T07:48:25.866Z,81.50
2017-11-12T07:50:53.336Z,81.20
2017-11-12T07:53:21.579Z,81.60
2017-11-12T07:55:49.040Z,81.60
2017-11-12T07:58:17.280Z,81.70
2017-11-12T08:00:44.757Z,81.80
2017-11-12T08:03:12.229Z,82.10
2017-11-12T08:05:39.709Z,82.80
2017-11-12T08:08:07.167Z,81.30
2017-11-12T08:10:34.714Z,81.10
2017-11-12T08:13:02.176Z,81.10
2017-11-12T08:15:29.788Z,81.40
2017-11-12T08:17:58.034Z,82.00
2017-11-12T08:20:25.519Z,82.10
2017-11-12T08:22:53.027Z,81.90
2017-11-12T08:25:20.489Z,82.10
2017-11-12T08:27:48.080Z,82.60
2017-11-12T08:30:16.466Z,83.20
2017-11-12T08:32:44.052Z,82.50
2017-11-12T08:35:11.557Z,82.70
2017-11-12T08:37:39.891Z,82.60
2017-11-12T08:40:07.368Z,82.70
2017-11-12T08:42:34.856Z,83.00
2017-11-12T08:45:02.316Z,83.10
2017-11-12T08:47:29.815Z,83.40
2017-11-12T08:49:57.331Z,83.40
2017-11-12T08:52:24.803Z,83.90
2017-11-12T08:54:53.103Z,83.40
2017-11-12T08:57:21.338Z,83.80
2017-11-12T08:59:48.912Z,84.00
2017-11-12T09:02:16.492Z,83.80
2017-11-12T09:04:44.055Z,83.20
2017-11-12T09:07:12.293Z,84.10
2017-11-12T09:09:39.756Z,84.20
2017-11-12T09:12:07.275Z,85.20
2017-11-12T09:14:34.756Z,85.20
2017-11-12T09:17:02.373Z,84.90
2017-11-12T09:19:29.862Z,84.90
2017-11-12T09:21:57.324Z,85.10
2017-11-12T09:24:24.878Z,85.40
2017-11-12T09:26:52.407Z,85.70
2017-11-12T09:29:20.651Z,85.60
2017-11-12T09:31:48.176Z,85.60
2017-11-12T09:34:15.685Z,84.40
2017-11-12T09:36:43.138Z,85.10
2017-11-12T09:39:11.517Z,84.80
2017-11-12T09:41:38.970Z,84.90
2017-11-12T09:44:07.376Z,84.10
2017-11-12T09:46:35.604Z,84.30
2017-11-12T09:49:03.133Z,84.30
2017-11-12T09:51:30.612Z,85.00
2017-11-12T09:53:58.117Z,86.20
2017-11-12T09:56:25.752Z,85.60
2017-11-12T09:58:54.009Z,84.00
2017-11-12T10:01:21.459Z,84.10
2017-11-12T10:03:48.931Z,83.40
2017-11-12T10:06:16.413Z,83.60
2017-11-12T10:08:43.864Z,83.60
2017-11-12T10:11:12.150Z,83.80
2017-11-12T10:13:40.425Z,84.50
2017-11-12T10:16:07.912Z,84.30
2017-11-12T10:18:35.372Z,83.90
2017-11-12T10:21:02.883Z,84.00
2017-11-12T10:23:30.345Z,82.90
2017-11-12T10:25:57.804Z,82.50
2017-11-12T10:28:25.299Z,83.10
2017-11-12T10:30:52.786Z,83.40
2017-11-12T10:33:20.287Z,84.00
2017-11-12T10:35:47.743Z,83.80
2017-11-12T10:38:15.222Z,83.70
2017-11-12T10:40:42.795Z,84.50
2017-11-12T10:43:10.261Z,85.50
2017-11-12T10:45:37.759Z,84.80
2017-11-12T10:48:05.239Z,85.40
2017-11-12T10:50:32.729Z,85.10
2017-11-12T10:53:00.269Z,85.50
2017-11-12T10:55:28.516Z,84.70
2017-11-12T10:57:55.980Z,84.70
2017-11-12T11:00:23.561Z,85.10
2017-11-12T11:02:51.035Z,85.70
2017-11-12T11:05:19.256Z,86.20
2017-11-12T11:07:46.786Z,86.20
2017-11-12T11:10:14.298Z,86.10
2017-11-12T11:12:42.909Z,86.40
2017-11-12T11:15:11.136Z,86.20
2017-11-12T11:17:38.600Z,86.20
2017-11-12T11:20:06.078Z,86.50
2017-11-12T11:22:33.577Z,86.20
2017-11-12T11:25:01.155Z,86.50
2017-11-12T11:27:28.636Z,86.90
2017-11-12T11:29:56.192Z,87.30
2017-11-12T11:32:23.670Z,86.90
2017-11-12T11:34:51.131Z,86.60
2017-11-12T11:37:19.410Z,86.00
2017-11-12T11:39:46.864Z,86.00
2017-11-12T11:42:14.328Z,85.60
2017-11-12T11:44:42.576Z,85.20
2017-11-12T11:47:10.032Z,85.20
2017-11-12T11:49:37.508Z,84.90
2017-11-12T11:52:04.962Z,84.30
2017-11-12T11:54:32.445Z,84.40
2017-11-12T11:56:59.935Z,84.20
2017-11-12T11:59:28.791Z,84.20
2017-11-12T12:01:56.251Z,84.10
2017-11-12T12:04:24.489Z,84.40
2017-11-12T12:06:51.961Z,84.30
2017-11-12T12:09:19.421Z,84.20
2017-11-12T12:11:47.672Z,83.10
2017-11-12T12:14:15.219Z,83.20
2017-11-12T12:16:42.709Z,82.10
2017-11-12T12:19:10.172Z,81.20
2017-11-12T12:21:38.419Z,80.70
2017-11-12T12:24:06.648Z,80.20
2017-11-12T12:26:34.995Z,80.40
2017-11-12T12:29:02.476Z,80.30
2017-11-12T12:31:30.106Z,80.00
2017-11-12T12:33:57.622Z,80.00
2017-11-12T12:36:25.103Z,79.50
2017-11-12T12:38:53.326Z,79.30
2017-11-12T12:41:20.797Z,79.30
2017-11-12T12:43:48.332Z,79.20
2017-11-12T12:46:15.831Z,79.20
2017-11-12T12:48:43.279Z,79.20
2017-11-12T12:51:10.748Z,79.70
2017-11-12T12:53:38.333Z,78.90
2017-11-12T12:56:05.811Z,78.70
2017-11-12T12:58:33.411Z,77.90
2017-11-12T13:01:00.877Z,77.80
2017-11-12T13:03:28.331Z,76.50
2017-11-12T13:05:56.244Z,76.70
2017-11-12T13:08:23.734Z,76.10
2017-11-12T13:10:51.352Z,76.00
2017-11-12T13:13:18.859Z,75.30
2017-11-12T13:15:47.072Z,75.20
2017-11-12T13:18:14.565Z,75.20
2017-11-12T13:20:42.073Z,74.90
2017-11-12T13:23:10.311Z,76.00
2017-11-12T13:25:37.900Z,76.00
2017-11-12T13:28:05.354Z,75.10
2017-11-12T13:30:32.822Z,75.40
2017-11-12T13:33:00.347Z,75.80
2017-11-12T13:35:27.816Z,75.70
2017-11-12T13:37:56.231Z,76.20
2017-11-12T13:40:23.716Z,75.50
2017-11-12T13:42:51.175Z,75.30
2017-11-12T13:45:18.827Z,75.30
2017-11-12T13:47:47.108Z,74.90
2017-11-12T13:50:15.378Z,75.30
2017-11-12T13:52:42.836Z,75.30
2017-11-12T13:55:10.294Z,74.60
2017-11-12T13:57:37.754Z,74.90
2017-11-12T14:00:05.988Z,73.70
2017-11-12T14:02:33.524Z,73.70
2017-11-12T14:05:01.001Z,73.60
2017-11-12T14:07:28.467Z,74.10
2017-11-12T14:09:56.011Z,73.30
2017-11-12T14:12:23.497Z,72.50
2017-11-12T14:14:50.967Z,72.40
2017-11-12T14:17:18.462Z,71.70
2017-11-12T14:19:45.921Z,71.40
2017-11-12T14:22:14.175Z,72.00
2017-11-12T14:24:42.460Z,71.60
2017-11-12T14:27:10.690Z,72.20
2017-11-12T14:29:38.180Z,72.20
2017-11-12T14:32:05.924Z,72.40
2017-11-12T14:34:33.437Z,72.90
2017-11-12T14:37:00.921Z,72.70
2017-11-12T14:39:28.979Z,73.10
2017-11-12T14:41:57.234Z,73.50
2017-11-12T14:44:24.704Z,73.70
2017-11-12T14:46:52.283Z,73.00
2017-11-12T14:49:19.762Z,72.40
2017-11-12T14:51:48.022Z,72.30
2017-11-12T14:54:15.558Z,72.30
2017-11-12T14:56:43.039Z,72.00
2017-11-12T14:59:10.521Z,72.80
2017-11-12T15:01:38.029Z,72.10
2017-11-12T15:04:05.489Z,71.90
2017-11-12T15:06:32.969Z,72.00
2017-11-12T15:09:00.503Z,72.30
2017-11-12T15:11:27.969Z,72.30
2017-11-12T15:13:55.440Z,72.90
2017-11-12T15:16:22.962Z,72.20
2017-11-12T15:18:51.180Z,71.90
2017-11-12T15:21:18.710Z,72.00
2017-11-12T15:23:46.209Z,72.30
2017-11-12T15:26:14.580Z,69.10
2017-11-12T15:28:42.079Z,68.90
2017-11-12T15:31:09.756Z,69.60
2017-11-12T15:33:37.223Z,71.40
2017-11-12T15:36:04.705Z,72.90
2017-11-12T15:38:32.193Z,75.00
2017-11-12T15:40:59.673Z,76.60
2017-11-12T15:43:27.144Z,78.20
2017-11-12T15:45:54.623Z,79.20
2017-11-12T15:48:22.138Z,80.00
2017-11-12T15:50:49.651Z,81.10
2017-11-12T15:53:17.112Z,81.60
2017-11-12T15:55:44.583Z,81.90
2017-11-12T15:58:12.093Z,81.10
2017-11-12T16:00:40.337Z,81.30
2017-11-12T16:03:07.832Z,81.30
2017-11-12T16:05:35.297Z,81.40
2017-11-12T16:08:02.789Z,81.00
2017-11-12T16:10:30.343Z,81.40
2017-11-12T16:12:57.795Z,81.40
2017-11-12T16:15:25.264Z,80.20
2017-11-12T16:17:52.765Z,79.80
2017-11-12T16:20:20.239Z,79.90
2017-11-12T16:22:47.734Z,80.10
2017-11-12T16:25:16.062Z,80.60
2017-11-12T16:27:43.611Z,80.50
2017-11-12T16:30:11.272Z,79.40
2017-11-12T16:32:38.783Z,79.60
2017-11-12T16:35:06.231Z,79.10
2017-11-12T16:37:33.720Z,79.10
2017-11-12T16:40:01.181Z,78.20
2017-11-12T16:42:28.720Z,78.40
2017-11-12T16:44:56.947Z,78.00
2017-11-12T16:47:24.441Z,78.10
2017-11-12T16:49:51.996Z,77.60
2017-11-12T16:52:20.242Z,76.80
2017-11-12T16:54:47.738Z,76.60
2017-11-12T16:57:15.205Z,77.20
2017-11-12T16:59:42.685Z,77.10
2017-11-12T17:02:10.266Z,77.10
2017-11-12T17:04:37.751Z,77.20
2017-11-12T17:07:05.339Z,77.60
2017-11-12T17:09:32.835Z,78.00
2017-11-12T17:12:00.313Z,78.30
2017-11-12T17:14:27.887Z,78.70
2017-11-12T17:16:55.444Z,78.80
2017-11-12T17:19:22.941Z,78.30
2017-11-12T17:21:50.432Z,78.90
2017-11-12T17:24:17.931Z,77.90
2017-11-12T17:26:45.399Z,78.10
2017-11-12T17:29:12.872Z,78.30
2017-11-12T17:31:40.380Z,77.30
2017-11-12T17:34:07.868Z,77.70
2017-11-12T17:36:35.350Z,77.70
2017-11-12T17:39:02.816Z,77.90
2017-11-12T17:41:30.305Z,77.90
2017-11-12T17:43:57.975Z,77.80
2017-11-12T17:46:25.456Z,78.80
2017-11-12T17:48:52.963Z,78.40
2017-11-12T17:51:20.446Z,78.10
2017-11-12T17:53:48.120Z,78.00
2017-11-12T17:56:15.596Z,77.60
2017-11-12T17:58:43.855Z,78.20
2017-11-12T18:01:11.381Z,78.30
2017-11-12T18:03:38.897Z,78.20
2017-11-12T18:06:06.538Z,77.80
2017-11-12T18:08:34.060Z,77.60
2017-11-12T18:11:01.539Z,77.00
2017-11-12T18:13:29.113Z,78.00
2017-11-12T18:15:56.630Z,78.70
2017-11-12T18:18:24.119Z,79.70
2017-11-12T18:20:51.600Z,80.30
2017-11-12T18:23:19.818Z,80.80
2017-11-12T18:25:47.321Z,80.80
2017-11-12T18:28:14.896Z,80.80
2017-11-12T18:30:42.396Z,80.50
2017-11-12T18:33:09.930Z,80.80
2017-11-12T18:35:37.411Z,79.90
2017-11-12T18:38:05.636Z,80.10
2017-11-12T18:40:34.146Z,79.70
2017-11-12T18:43:01.853Z,79.70
2017-11-12T18:45:29.329Z,79.10
2017-11-12T18:47:56.876Z,79.30
2017-11-12T18:50:24.335Z,78.50
2017-11-12T18:52:52.575Z,79.90
2017-11-12T18:55:23.317Z,79.30
2017-11-12T18:57:52.364Z,79.30
2017-11-12T19:00:29.741Z,79.40
2017-11-12T19:03:02.995Z,79.20
2017-11-12T19:05:48.713Z,79.50
2017-11-12T19:08:19.843Z,79.50
2017-11-12T19:10:47.419Z,79.10
2017-11-12T19:13:14.956Z,79.10
2017-11-12T19:15:42.485Z,78.90
2017-11-12T19:18:25.849Z,78.70
2017-11-12T19:20:55.289Z,78.50
2017-11-12T19:23:24.016Z,79.30
2017-11-12T19:28:56.455Z,78.80
2017-11-12T19:31:24.732Z,78.60
2017-11-12T19:33:52.214Z,79.30
2017-11-12T19:36:19.700Z,77.90
2017-11-12T19:38:47.239Z,77.50
2017-11-12T19:41:14.842Z,77.10
2017-11-12T19:43:42.330Z,77.20
2017-11-12T19:46:09.807Z,77.30
2017-11-12T19:48:37.261Z,77.20
2017-11-12T19:51:05.494Z,77.90
2017-11-12T19:53:32.984Z,78.00
2017-11-12T19:56:00.512Z,77.80
2017-11-12T19:58:28.230Z,77.90
2017-11-12T20:00:56.477Z,78.20
2017-11-12T20:03:24.278Z,78.20
2017-11-12T20:05:51.771Z,77.70
2017-11-12T20:08:19.343Z,77.50
2017-11-12T20:10:46.808Z,78.00
2017-11-12T20:13:14.316Z,77.70
2017-11-12T20:15:41.817Z,77.40
2017-11-12T20:18:10.073Z,76.70
2017-11-12T20:20:37.624Z,77.30
2017-11-12T20:23:05.157Z,77.00
2017-11-12T20:25:32.659Z,76.90
2017-11-12T20:28:00.899Z,76.50
2017-11-12T20:30:28.400Z,76.60
2017-11-12T20:32:55.858Z,76.60
2017-11-12T20:35:23.334Z,76.70
2017-11-12T20:37:50.974Z,76.80
2017-11-12T20:40:18.469Z,76.10
2017-11-12T20:42:45.964Z,76.40
2017-11-12T20:45:14.384Z,75.60
2017-11-12T20:47:42.670Z,75.60
2017-11-12T20:50:10.195Z,75.50
2017-11-12T20:52:38.585Z,75.00
2017-11-12T20:55:06.129Z,75.20
2017-11-12T20:57:33.740Z,74.90
2017-11-12T21:00:02.071Z,75.10
2017-11-12T21:02:29.554Z,75.20
2017-11-12T21:04:57.647Z,75.40
2017-11-12T21:07:25.969Z,73.90
2017-11-12T21:09:53.490Z,74.00
2017-11-12T21:12:21.010Z,73.90
2017-11-12T21:14:48.516Z,74.50
2017-11-12T21:17:15.993Z,74.00
2017-11-12T21:19:46.085Z,73.70
2017-11-12T21:22:13.565Z,73.80
2017-11-12T21:24:41.085Z,73.90
2017-11-12T21:27:13.201Z,74.40
2017-11-12T21:29:40.648Z,74.30
2017-11-12T21:32:19.740Z,74.90
2017-11-12T21:34:47.217Z,75.00
2017-11-12T21:40:16.587Z,74.70
2017-11-12T21:42:44.090Z,74.20
2017-11-12T21:45:11.644Z,73.80
2017-11-12T21:47:39.142Z,74.20
2017-11-12T21:50:06.717Z,73.40
2017-11-12T21:52:34.167Z,73.30
2017-11-12T21:55:01.699Z,74.20
2017-11-12T21:57:29.196Z,73.90
2017-11-12T21:59:56.668Z,73.40
2017-11-12T22:02:24.202Z,72.20
2017-11-12T22:04:51.786Z,72.20
2017-11-12T22:07:19.241Z,72.10
2017-11-12T22:09:46.715Z,71.50
2017-11-12T22:12:14.259Z,71.70
2017-11-12T22:14:41.725Z,71.70
2017-11-12T22:17:09.240Z,71.50
2017-11-12T22:19:36.873Z,71.60
2017-11-12T22:22:04.318Z,71.90
2017-11-12T22:24:32.534Z,72.20
2017-11-12T22:26:59.998Z,72.10
2017-11-12T22:29:27.467Z,72.30
2017-11-12T22:31:54.952Z,72.50
2017-11-12T22:34:23.169Z,71.10
2017-11-12T22:36:50.634Z,71.10
2017-11-12T22:39:18.115Z,71.20
2017-11-12T22:41:45.563Z,71.60
2017-11-12T22:44:13.027Z,71.60
2017-11-12T22:46:40.564Z,71.60
2017-11-12T22:49:08.034Z,70.90
2017-11-12T22:51:35.485Z,71.70
2017-11-12T22:54:02.981Z,70.40
2017-11-12T22:56:31.298Z,69.90
2017-11-12T22:58:58.872Z,69.90
2017-11-12T23:01:26.384Z,70.50
2017-11-12T23:03:53.841Z,70.30
2017-11-12T23:06:22.050Z,70.70
2017-11-12T23:08:49.628Z,70.90
2017-11-12T23:11:17.089Z,70.80
2017-11-12T23:13:44.628Z,71.10
2017-11-12T23:16:12.124Z,70.50
2017-11-12T23:18:40.349Z,71.10
2017-11-12T23:21:07.875Z,71.20
2017-11-12T23:23:35.406Z,70.50
2017-11-12T23:26:02.865Z,70.70
2017-11-12T23:28:31.076Z,70.50
2017-11-12T23:30:58.540Z,70.00
2017-11-12T23:33:26.115Z,70.00
2017-11-12T23:35:53.639Z,70.40
2017-11-12T23:38:21.099Z,70.40
2017-11-12T23:40:48.576Z,70.60
2017-11-12T23:43:16.063Z,69.90
2017-11-12T23:45:43.787Z,70.40
2017-11-12T23:48:12.214Z,70.40
2017-11-12T23:50:39.657Z,70.70
2017-11-12T23:53:07.102Z,70.80
2017-11-12T23:55:34.588Z,71.10
2017-11-12T23:58:02.118Z,70.90
